sensor_id;sensor_type;location;lat;lon;timestamp;temperature;humidity
24452;DHT22;13350;50.984;5.822;2024-01-27T00:02:20;3.00;99.90
24452;DHT22;13350;50.984;5.822;2024-01-27T00:04:47;3.00;99.90
24452;DHT22;13350;50.984;5.822;2024-01-27T00:07:16;2.90;99.90
24452;DHT22;13350;50.984;5.822;2024-01-27T00:09:43;2.90;99.90
24452;DHT22;13350;50.984;5.822;2024-01-27T00:12:10;2.80;99.90
24452;DHT22;13350;50.984;5.822;2024-01-27T00:14:37;2.80;99.90
24452;DHT22;13350;50.984;5.822;2024-01-27T00:17:04;2.80;99.90
24452;DHT22;13350;50.984;5.822;2024-01-27T00:19:31;2.80;99.90
24452;DHT22;13350;50.984;5.822;2024-01-27T00:21:58;2.80;99.90
24452;DHT22;13350;50.984;5.822;2024-01-27T00:24:27;2.80;99.90
24452;DHT22;13350;50.984;5.822;2024-01-27T00:26:54;2.80;99.90
24452;DHT22;13350;50.984;5.822;2024-01-27T00:29:21;2.80;99.90
24452;DHT22;13350;50.984;5.822;2024-01-27T00:31:48;2.80;99.90
24452;DHT22;13350;50.984;5.822;2024-01-27T00:34:16;2.80;99.90
24452;DHT22;13350;50.984;5.822;2024-01-27T00:36:43;2.80;99.90
24452;DHT22;13350;50.984;5.822;2024-01-27T00:39:14;2.90;99.90
24452;DHT22;13350;50.984;5.822;2024-01-27T00:41:42;2.80;99.90
24452;DHT22;13350;50.984;5.822;2024-01-27T00:44:09;2.90;99.90
24452;DHT22;13350;50.984;5.822;2024-01-27T00:46:36;2.80;99.90
24452;DHT22;13350;50.984;5.822;2024-01-27T00:49:03;2.80;99.90
24452;DHT22;13350;50.984;5.822;2024-01-27T00:51:30;2.80;99.90
24452;DHT22;13350;50.984;5.822;2024-01-27T00:53:57;2.80;99.90
24452;DHT22;13350;50.984;5.822;2024-01-27T00:56:24;2.80;99.90
24452;DHT22;13350;50.984;5.822;2024-01-27T00:58:53;2.70;99.90
24452;DHT22;13350;50.984;5.822;2024-01-27T01:01:19;2.60;99.90
24452;DHT22;13350;50.984;5.822;2024-01-27T01:03:46;2.70;99.90
24452;DHT22;13350;50.984;5.822;2024-01-27T01:06:13;2.70;99.90
24452;DHT22;13350;50.984;5.822;2024-01-27T01:08:40;2.60;99.90
24452;DHT22;13350;50.984;5.822;2024-01-27T01:11:07;2.70;99.90
24452;DHT22;13350;50.984;5.822;2024-01-27T01:13:35;2.70;99.90
24452;DHT22;13350;50.984;5.822;2024-01-27T01:16:04;2.70;99.90
24452;DHT22;13350;50.984;5.822;2024-01-27T01:18:31;2.60;99.90
24452;DHT22;13350;50.984;5.822;2024-01-27T01:20:58;2.60;99.90
24452;DHT22;13350;50.984;5.822;2024-01-27T01:23:25;2.60;99.90
24452;DHT22;13350;50.984;5.822;2024-01-27T01:25:52;2.60;99.90
24452;DHT22;13350;50.984;5.822;2024-01-27T01:28:18;2.60;99.90
24452;DHT22;13350;50.984;5.822;2024-01-27T01:30:45;2.70;99.90
24452;DHT22;13350;50.984;5.822;2024-01-27T01:33:14;2.80;99.90
24452;DHT22;13350;50.984;5.822;2024-01-27T01:35:41;2.80;99.90
24452;DHT22;13350;50.984;5.822;2024-01-27T01:38:08;2.80;99.90
24452;DHT22;13350;50.984;5.822;2024-01-27T01:40:35;2.80;99.90
24452;DHT22;13350;50.984;5.822;2024-01-27T01:43:02;2.80;99.90
24452;DHT22;13350;50.984;5.822;2024-01-27T01:45:29;2.80;99.90
24452;DHT22;13350;50.984;5.822;2024-01-27T01:47:57;2.80;99.90
24452;DHT22;13350;50.984;5.822;2024-01-27T01:50:25;2.80;99.90
24452;DHT22;13350;50.984;5.822;2024-01-27T01:52:52;2.70;99.90
24452;DHT22;13350;50.984;5.822;2024-01-27T01:55:19;2.70;99.90
24452;DHT22;13350;50.984;5.822;2024-01-27T01:57:46;2.70;99.90
24452;DHT22;13350;50.984;5.822;2024-01-27T02:00:14;2.80;99.90
24452;DHT22;13350;50.984;5.822;2024-01-27T02:02:42;2.70;99.90
24452;DHT22;13350;50.984;5.822;2024-01-27T02:05:09;2.80;99.90
24452;DHT22;13350;50.984;5.822;2024-01-27T02:07:38;2.90;99.90
24452;DHT22;13350;50.984;5.822;2024-01-27T02:10:06;3.00;99.90
24452;DHT22;13350;50.984;5.822;2024-01-27T02:12:33;2.90;99.90
24452;DHT22;13350;50.984;5.822;2024-01-27T02:15:00;2.90;99.90
24452;DHT22;13350;50.984;5.822;2024-01-27T02:17:27;2.90;99.90
24452;DHT22;13350;50.984;5.822;2024-01-27T02:19:54;2.80;99.90
24452;DHT22;13350;50.984;5.822;2024-01-27T02:22:21;2.80;99.90
24452;DHT22;13350;50.984;5.822;2024-01-27T02:24:49;2.70;99.90
24452;DHT22;13350;50.984;5.822;2024-01-27T02:27:16;2.70;99.90
24452;DHT22;13350;50.984;5.822;2024-01-27T02:29:43;2.70;99.90
24452;DHT22;13350;50.984;5.822;2024-01-27T02:32:10;2.60;99.90
24452;DHT22;13350;50.984;5.822;2024-01-27T02:34:37;2.70;99.90
24452;DHT22;13350;50.984;5.822;2024-01-27T02:37:04;2.70;99.90
24452;DHT22;13350;50.984;5.822;2024-01-27T02:39:31;2.70;99.90
24452;DHT22;13350;50.984;5.822;2024-01-27T02:42:00;2.70;99.90
24452;DHT22;13350;50.984;5.822;2024-01-27T02:44:27;2.70;99.90
24452;DHT22;13350;50.984;5.822;2024-01-27T02:46:54;2.70;99.90
24452;DHT22;13350;50.984;5.822;2024-01-27T02:49:21;2.70;99.90
24452;DHT22;13350;50.984;5.822;2024-01-27T02:51:48;2.70;99.90
24452;DHT22;13350;50.984;5.822;2024-01-27T02:54:15;2.70;99.90
24452;DHT22;13350;50.984;5.822;2024-01-27T02:56:42;2.70;99.90
24452;DHT22;13350;50.984;5.822;2024-01-27T02:59:10;2.70;99.90
24452;DHT22;13350;50.984;5.822;2024-01-27T03:01:38;2.80;99.90
24452;DHT22;13350;50.984;5.822;2024-01-27T03:04:05;2.70;99.90
24452;DHT22;13350;50.984;5.822;2024-01-27T03:06:32;2.80;99.90
24452;DHT22;13350;50.984;5.822;2024-01-27T03:08:59;2.80;99.90
24452;DHT22;13350;50.984;5.822;2024-01-27T03:11:26;2.50;99.90
24452;DHT22;13350;50.984;5.822;2024-01-27T03:13:53;2.40;99.90
24452;DHT22;13350;50.984;5.822;2024-01-27T03:16:21;2.30;99.90
24452;DHT22;13350;50.984;5.822;2024-01-27T03:18:48;2.30;99.90
24452;DHT22;13350;50.984;5.822;2024-01-27T03:21:15;2.10;99.90
24452;DHT22;13350;50.984;5.822;2024-01-27T03:23:42;2.10;99.90
24452;DHT22;13350;50.984;5.822;2024-01-27T03:26:09;2.00;99.90
24452;DHT22;13350;50.984;5.822;2024-01-27T03:28:36;2.10;99.90
24452;DHT22;13350;50.984;5.822;2024-01-27T03:31:03;2.30;99.90
24452;DHT22;13350;50.984;5.822;2024-01-27T03:33:32;2.40;99.90
24452;DHT22;13350;50.984;5.822;2024-01-27T03:35:58;2.60;99.90
24452;DHT22;13350;50.984;5.822;2024-01-27T03:38:25;2.80;99.90
24452;DHT22;13350;50.984;5.822;2024-01-27T03:40:52;2.60;99.90
24452;DHT22;13350;50.984;5.822;2024-01-27T03:43:19;2.50;99.90
24452;DHT22;13350;50.984;5.822;2024-01-27T03:45:46;2.70;99.90
24452;DHT22;13350;50.984;5.822;2024-01-27T03:48:14;2.70;99.90
24452;DHT22;13350;50.984;5.822;2024-01-27T03:50:42;2.60;99.90
24452;DHT22;13350;50.984;5.822;2024-01-27T03:53:10;2.60;99.90
24452;DHT22;13350;50.984;5.822;2024-01-27T03:55:37;2.70;99.90
24452;DHT22;13350;50.984;5.822;2024-01-27T03:58:04;2.80;99.90
24452;DHT22;13350;50.984;5.822;2024-01-27T04:00:30;2.70;99.90
24452;DHT22;13350;50.984;5.822;2024-01-27T04:02:58;2.70;99.90
24452;DHT22;13350;50.984;5.822;2024-01-27T04:05:26;2.70;99.90
24452;DHT22;13350;50.984;5.822;2024-01-27T04:07:54;2.70;99.90
24452;DHT22;13350;50.984;5.822;2024-01-27T04:10:21;2.80;99.90
24452;DHT22;13350;50.984;5.822;2024-01-27T04:12:48;2.80;99.90
24452;DHT22;13350;50.984;5.822;2024-01-27T04:15:15;2.70;99.90
24452;DHT22;13350;50.984;5.822;2024-01-27T04:17:42;2.60;99.90
24452;DHT22;13350;50.984;5.822;2024-01-27T04:20:10;2.60;99.90
24452;DHT22;13350;50.984;5.822;2024-01-27T04:22:37;2.50;99.90
24452;DHT22;13350;50.984;5.822;2024-01-27T04:25:06;2.40;99.90
24452;DHT22;13350;50.984;5.822;2024-01-27T04:27:36;2.40;99.90
24452;DHT22;13350;50.984;5.822;2024-01-27T04:30:04;2.30;99.90
24452;DHT22;13350;50.984;5.822;2024-01-27T04:32:31;2.30;99.90
24452;DHT22;13350;50.984;5.822;2024-01-27T04:34:58;2.10;99.90
24452;DHT22;13350;50.984;5.822;2024-01-27T04:37:25;2.00;99.90
24452;DHT22;13350;50.984;5.822;2024-01-27T04:39:52;1.90;99.90
24452;DHT22;13350;50.984;5.822;2024-01-27T04:42:20;1.90;99.90
24452;DHT22;13350;50.984;5.822;2024-01-27T04:44:47;1.80;99.90
24452;DHT22;13350;50.984;5.822;2024-01-27T04:47:14;1.70;99.90
24452;DHT22;13350;50.984;5.822;2024-01-27T04:49:42;1.80;99.90
24452;DHT22;13350;50.984;5.822;2024-01-27T04:52:09;1.80;99.90
24452;DHT22;13350;50.984;5.822;2024-01-27T04:54:36;1.80;99.90
24452;DHT22;13350;50.984;5.822;2024-01-27T04:57:03;1.70;99.90
24452;DHT22;13350;50.984;5.822;2024-01-27T04:59:32;1.60;99.90
24452;DHT22;13350;50.984;5.822;2024-01-27T05:01:59;1.60;99.90
24452;DHT22;13350;50.984;5.822;2024-01-27T05:04:26;1.70;99.90
24452;DHT22;13350;50.984;5.822;2024-01-27T05:06:53;1.80;99.90
24452;DHT22;13350;50.984;5.822;2024-01-27T05:09:20;1.80;99.90
24452;DHT22;13350;50.984;5.822;2024-01-27T05:11:47;1.80;99.90
24452;DHT22;13350;50.984;5.822;2024-01-27T05:14:17;1.80;99.90
24452;DHT22;13350;50.984;5.822;2024-01-27T05:16:45;1.90;99.90
24452;DHT22;13350;50.984;5.822;2024-01-27T05:19:12;1.80;99.90
24452;DHT22;13350;50.984;5.822;2024-01-27T05:21:41;1.80;99.90
24452;DHT22;13350;50.984;5.822;2024-01-27T05:24:08;1.90;99.90
24452;DHT22;13350;50.984;5.822;2024-01-27T05:26:35;1.90;99.90
24452;DHT22;13350;50.984;5.822;2024-01-27T05:29:02;1.90;99.90
24452;DHT22;13350;50.984;5.822;2024-01-27T05:31:28;1.90;99.90
24452;DHT22;13350;50.984;5.822;2024-01-27T05:33:57;2.00;99.90
24452;DHT22;13350;50.984;5.822;2024-01-27T05:36:25;2.00;99.90
24452;DHT22;13350;50.984;5.822;2024-01-27T05:38:52;2.10;99.90
24452;DHT22;13350;50.984;5.822;2024-01-27T05:41:19;2.20;99.90
24452;DHT22;13350;50.984;5.822;2024-01-27T05:43:46;2.20;99.90
24452;DHT22;13350;50.984;5.822;2024-01-27T05:46:13;2.20;99.90
24452;DHT22;13350;50.984;5.822;2024-01-27T05:48:39;2.10;99.90
24452;DHT22;13350;50.984;5.822;2024-01-27T05:51:07;2.10;99.90
24452;DHT22;13350;50.984;5.822;2024-01-27T05:53:34;2.10;99.90
24452;DHT22;13350;50.984;5.822;2024-01-27T05:56:01;2.20;99.90
24452;DHT22;13350;50.984;5.822;2024-01-27T05:58:29;2.00;99.90
24452;DHT22;13350;50.984;5.822;2024-01-27T06:00:55;2.10;99.90
24452;DHT22;13350;50.984;5.822;2024-01-27T06:03:22;2.10;99.90
24452;DHT22;13350;50.984;5.822;2024-01-27T06:05:50;2.10;99.90
24452;DHT22;13350;50.984;5.822;2024-01-27T06:08:18;2.20;99.90
24452;DHT22;13350;50.984;5.822;2024-01-27T06:10:46;2.10;99.90
24452;DHT22;13350;50.984;5.822;2024-01-27T06:13:12;2.20;99.90
24452;DHT22;13350;50.984;5.822;2024-01-27T06:15:39;2.20;99.90
24452;DHT22;13350;50.984;5.822;2024-01-27T06:18:07;2.20;99.90
24452;DHT22;13350;50.984;5.822;2024-01-27T06:20:34;2.10;99.90
24452;DHT22;13350;50.984;5.822;2024-01-27T06:23:01;2.10;99.90
24452;DHT22;13350;50.984;5.822;2024-01-27T06:25:29;2.10;99.90
24452;DHT22;13350;50.984;5.822;2024-01-27T06:27:56;2.30;99.90
24452;DHT22;13350;50.984;5.822;2024-01-27T06:30:23;2.30;99.90
24452;DHT22;13350;50.984;5.822;2024-01-27T06:32:50;2.30;99.90
24452;DHT22;13350;50.984;5.822;2024-01-27T06:35:17;2.30;99.90
24452;DHT22;13350;50.984;5.822;2024-01-27T06:37:44;2.30;99.90
24452;DHT22;13350;50.984;5.822;2024-01-27T06:40:12;2.30;99.90
24452;DHT22;13350;50.984;5.822;2024-01-27T06:42:40;2.10;99.90
24452;DHT22;13350;50.984;5.822;2024-01-27T06:45:07;2.00;99.90
24452;DHT22;13350;50.984;5.822;2024-01-27T06:47:34;2.10;99.90
24452;DHT22;13350;50.984;5.822;2024-01-27T06:50:00;2.20;99.90
24452;DHT22;13350;50.984;5.822;2024-01-27T06:52:28;2.20;99.90
24452;DHT22;13350;50.984;5.822;2024-01-27T06:54:55;2.20;99.90
24452;DHT22;13350;50.984;5.822;2024-01-27T06:57:24;2.20;99.90
24452;DHT22;13350;50.984;5.822;2024-01-27T06:59:53;2.10;99.90
24452;DHT22;13350;50.984;5.822;2024-01-27T07:02:22;2.00;99.90
24452;DHT22;13350;50.984;5.822;2024-01-27T07:04:49;2.00;99.90
24452;DHT22;13350;50.984;5.822;2024-01-27T07:07:16;1.90;99.90
24452;DHT22;13350;50.984;5.822;2024-01-27T07:09:43;1.90;99.90
24452;DHT22;13350;50.984;5.822;2024-01-27T07:12:10;2.20;99.90
24452;DHT22;13350;50.984;5.822;2024-01-27T07:14:37;2.30;99.90
24452;DHT22;13350;50.984;5.822;2024-01-27T07:17:05;2.30;99.90
24452;DHT22;13350;50.984;5.822;2024-01-27T07:19:32;2.30;99.90
24452;DHT22;13350;50.984;5.822;2024-01-27T07:21:59;2.50;99.90
24452;DHT22;13350;50.984;5.822;2024-01-27T07:24:26;2.40;99.90
24452;DHT22;13350;50.984;5.822;2024-01-27T07:26:53;2.50;99.90
24452;DHT22;13350;50.984;5.822;2024-01-27T07:29:20;2.40;99.90
24452;DHT22;13350;50.984;5.822;2024-01-27T07:31:47;2.40;99.90
24452;DHT22;13350;50.984;5.822;2024-01-27T07:34:16;2.40;99.90
24452;DHT22;13350;50.984;5.822;2024-01-27T07:36:43;2.50;99.90
24452;DHT22;13350;50.984;5.822;2024-01-27T07:39:10;2.50;99.90
24452;DHT22;13350;50.984;5.822;2024-01-27T07:41:37;2.50;99.90
24452;DHT22;13350;50.984;5.822;2024-01-27T07:44:07;2.60;99.90
24452;DHT22;13350;50.984;5.822;2024-01-27T07:46:35;2.50;99.90
24452;DHT22;13350;50.984;5.822;2024-01-27T07:49:02;2.60;99.90
24452;DHT22;13350;50.984;5.822;2024-01-27T07:51:30;2.70;99.90
24452;DHT22;13350;50.984;5.822;2024-01-27T07:53:58;2.70;99.90
24452;DHT22;13350;50.984;5.822;2024-01-27T07:56:24;2.60;99.90
24452;DHT22;13350;50.984;5.822;2024-01-27T07:58:51;2.70;99.90
24452;DHT22;13350;50.984;5.822;2024-01-27T08:01:18;2.70;99.90
24452;DHT22;13350;50.984;5.822;2024-01-27T08:03:45;2.80;99.90
24452;DHT22;13350;50.984;5.822;2024-01-27T08:06:14;2.80;99.90
24452;DHT22;13350;50.984;5.822;2024-01-27T08:08:45;2.80;99.90
24452;DHT22;13350;50.984;5.822;2024-01-27T08:11:12;2.80;99.90
24452;DHT22;13350;50.984;5.822;2024-01-27T08:13:39;3.00;99.90
24452;DHT22;13350;50.984;5.822;2024-01-27T08:16:06;3.20;99.90
24452;DHT22;13350;50.984;5.822;2024-01-27T08:18:35;3.20;99.90
24452;DHT22;13350;50.984;5.822;2024-01-27T08:21:02;3.20;99.90
24452;DHT22;13350;50.984;5.822;2024-01-27T08:23:29;3.10;99.90
24452;DHT22;13350;50.984;5.822;2024-01-27T08:25:58;3.10;99.90
24452;DHT22;13350;50.984;5.822;2024-01-27T08:28:24;3.10;99.90
24452;DHT22;13350;50.984;5.822;2024-01-27T08:30:51;3.10;99.90
24452;DHT22;13350;50.984;5.822;2024-01-27T08:33:18;3.10;99.90
24452;DHT22;13350;50.984;5.822;2024-01-27T08:35:46;3.00;99.90
24452;DHT22;13350;50.984;5.822;2024-01-27T08:38:13;2.90;99.90
24452;DHT22;13350;50.984;5.822;2024-01-27T08:40:40;3.00;99.90
24452;DHT22;13350;50.984;5.822;2024-01-27T08:43:08;2.90;99.90
24452;DHT22;13350;50.984;5.822;2024-01-27T08:45:37;2.90;99.90
24452;DHT22;13350;50.984;5.822;2024-01-27T08:48:04;2.90;99.90
24452;DHT22;13350;50.984;5.822;2024-01-27T08:50:31;3.10;99.90
24452;DHT22;13350;50.984;5.822;2024-01-27T08:52:58;3.20;99.90
24452;DHT22;13350;50.984;5.822;2024-01-27T08:55:25;3.40;99.90
24452;DHT22;13350;50.984;5.822;2024-01-27T08:57:52;3.90;99.90
24452;DHT22;13350;50.984;5.822;2024-01-27T09:00:20;4.50;99.90
24452;DHT22;13350;50.984;5.822;2024-01-27T09:02:47;4.90;99.90
24452;DHT22;13350;50.984;5.822;2024-01-27T09:05:14;5.20;99.90
24452;DHT22;13350;50.984;5.822;2024-01-27T09:07:41;5.60;99.90
24452;DHT22;13350;50.984;5.822;2024-01-27T09:10:08;5.80;99.90
24452;DHT22;13350;50.984;5.822;2024-01-27T09:12:38;6.30;99.90
24452;DHT22;13350;50.984;5.822;2024-01-27T09:15:05;6.40;99.90
24452;DHT22;13350;50.984;5.822;2024-01-27T09:17:34;6.60;99.90
24452;DHT22;13350;50.984;5.822;2024-01-27T09:20:01;7.00;99.90
24452;DHT22;13350;50.984;5.822;2024-01-27T09:22:28;7.20;99.90
24452;DHT22;13350;50.984;5.822;2024-01-27T09:24:55;6.90;99.90
24452;DHT22;13350;50.984;5.822;2024-01-27T09:27:22;7.00;99.90
24452;DHT22;13350;50.984;5.822;2024-01-27T09:29:49;7.40;99.90
24452;DHT22;13350;50.984;5.822;2024-01-27T09:32:16;7.10;99.90
24452;DHT22;13350;50.984;5.822;2024-01-27T09:34:44;7.20;99.90
24452;DHT22;13350;50.984;5.822;2024-01-27T09:37:11;7.20;99.90
24452;DHT22;13350;50.984;5.822;2024-01-27T09:39:38;7.80;99.90
24452;DHT22;13350;50.984;5.822;2024-01-27T09:42:06;8.40;99.90
24452;DHT22;13350;50.984;5.822;2024-01-27T09:44:34;8.80;99.90
24452;DHT22;13350;50.984;5.822;2024-01-27T09:47:01;9.10;99.90
24452;DHT22;13350;50.984;5.822;2024-01-27T09:49:29;8.80;99.90
24452;DHT22;13350;50.984;5.822;2024-01-27T09:51:58;8.70;99.90
24452;DHT22;13350;50.984;5.822;2024-01-27T09:54:25;9.10;99.90
24452;DHT22;13350;50.984;5.822;2024-01-27T09:56:52;9.10;99.90
24452;DHT22;13350;50.984;5.822;2024-01-27T09:59:20;9.20;99.90
24452;DHT22;13350;50.984;5.822;2024-01-27T10:01:48;8.70;99.90
24452;DHT22;13350;50.984;5.822;2024-01-27T10:04:16;8.60;99.90
24452;DHT22;13350;50.984;5.822;2024-01-27T10:06:45;8.80;99.90
24452;DHT22;13350;50.984;5.822;2024-01-27T10:09:14;8.60;99.90
24452;DHT22;13350;50.984;5.822;2024-01-27T10:11:42;8.40;99.90
24452;DHT22;13350;50.984;5.822;2024-01-27T10:14:12;8.40;99.90
24452;DHT22;13350;50.984;5.822;2024-01-27T10:16:41;8.90;99.90
24452;DHT22;13350;50.984;5.822;2024-01-27T10:19:11;8.60;99.90
24452;DHT22;13350;50.984;5.822;2024-01-27T10:21:39;8.30;99.90
24452;DHT22;13350;50.984;5.822;2024-01-27T10:24:06;8.50;99.90
24452;DHT22;13350;50.984;5.822;2024-01-27T10:26:35;8.40;99.90
24452;DHT22;13350;50.984;5.822;2024-01-27T10:29:01;8.50;99.90
24452;DHT22;13350;50.984;5.822;2024-01-27T10:31:29;8.20;99.90
24452;DHT22;13350;50.984;5.822;2024-01-27T10:33:56;8.30;99.90
24452;DHT22;13350;50.984;5.822;2024-01-27T10:36:23;8.50;99.90
24452;DHT22;13350;50.984;5.822;2024-01-27T10:38:51;9.10;99.90
24452;DHT22;13350;50.984;5.822;2024-01-27T10:41:20;9.80;99.90
24452;DHT22;13350;50.984;5.822;2024-01-27T10:43:49;9.40;99.90
24452;DHT22;13350;50.984;5.822;2024-01-27T10:46:17;9.40;99.90
24452;DHT22;13350;50.984;5.822;2024-01-27T10:48:45;9.30;99.90
24452;DHT22;13350;50.984;5.822;2024-01-27T10:51:14;9.70;99.90
24452;DHT22;13350;50.984;5.822;2024-01-27T10:53:43;9.70;99.90
24452;DHT22;13350;50.984;5.822;2024-01-27T10:56:12;9.00;99.90
24452;DHT22;13350;50.984;5.822;2024-01-27T10:58:40;8.60;99.90
24452;DHT22;13350;50.984;5.822;2024-01-27T11:01:09;9.00;99.90
24452;DHT22;13350;50.984;5.822;2024-01-27T11:03:37;9.60;99.90
24452;DHT22;13350;50.984;5.822;2024-01-27T11:06:05;9.90;99.90
24452;DHT22;13350;50.984;5.822;2024-01-27T11:08:32;10.00;99.90
24452;DHT22;13350;50.984;5.822;2024-01-27T11:11:00;10.20;99.90
24452;DHT22;13350;50.984;5.822;2024-01-27T11:13:27;9.60;99.90
24452;DHT22;13350;50.984;5.822;2024-01-27T11:15:54;9.10;99.90
24452;DHT22;13350;50.984;5.822;2024-01-27T11:18:23;9.00;99.90
24452;DHT22;13350;50.984;5.822;2024-01-27T11:20:52;8.80;99.90
24452;DHT22;13350;50.984;5.822;2024-01-27T11:23:19;9.50;99.90
24452;DHT22;13350;50.984;5.822;2024-01-27T11:25:46;9.50;99.90
24452;DHT22;13350;50.984;5.822;2024-01-27T11:28:13;9.80;99.90
24452;DHT22;13350;50.984;5.822;2024-01-27T11:30:44;9.50;99.90
24452;DHT22;13350;50.984;5.822;2024-01-27T11:33:12;9.50;99.90
24452;DHT22;13350;50.984;5.822;2024-01-27T11:35:40;9.80;99.90
24452;DHT22;13350;50.984;5.822;2024-01-27T11:38:07;10.20;99.90
24452;DHT22;13350;50.984;5.822;2024-01-27T11:40:44;10.00;99.90
24452;DHT22;13350;50.984;5.822;2024-01-27T11:43:11;9.80;99.90
24452;DHT22;13350;50.984;5.822;2024-01-27T11:45:39;10.00;99.90
24452;DHT22;13350;50.984;5.822;2024-01-27T11:48:06;10.10;99.90
24452;DHT22;13350;50.984;5.822;2024-01-27T11:50:33;9.60;99.90
24452;DHT22;13350;50.984;5.822;2024-01-27T11:53:01;9.90;99.90
24452;DHT22;13350;50.984;5.822;2024-01-27T11:55:28;10.50;99.90
24452;DHT22;13350;50.984;5.822;2024-01-27T11:57:55;10.40;99.90
24452;DHT22;13350;50.984;5.822;2024-01-27T12:00:22;10.70;98.20
24452;DHT22;13350;50.984;5.822;2024-01-27T12:02:50;10.50;98.50
24452;DHT22;13350;50.984;5.822;2024-01-27T12:05:17;10.50;99.90
24452;DHT22;13350;50.984;5.822;2024-01-27T12:07:44;10.50;99.50
24452;DHT22;13350;50.984;5.822;2024-01-27T12:10:12;10.90;98.10
24452;DHT22;13350;50.984;5.822;2024-01-27T12:12:39;11.50;96.50
24452;DHT22;13350;50.984;5.822;2024-01-27T12:15:06;10.80;94.10
24452;DHT22;13350;50.984;5.822;2024-01-27T12:17:33;10.60;96.90
24452;DHT22;13350;50.984;5.822;2024-01-27T12:20:00;11.30;95.80
24452;DHT22;13350;50.984;5.822;2024-01-27T12:22:28;10.60;94.40
24452;DHT22;13350;50.984;5.822;2024-01-27T12:24:56;10.40;94.60
24452;DHT22;13350;50.984;5.822;2024-01-27T12:27:35;10.00;96.50
24452;DHT22;13350;50.984;5.822;2024-01-27T12:30:03;9.90;97.80
24452;DHT22;13350;50.984;5.822;2024-01-27T12:32:31;10.30;96.90
24452;DHT22;13350;50.984;5.822;2024-01-27T12:34:58;10.10;96.90
24452;DHT22;13350;50.984;5.822;2024-01-27T12:37:25;10.10;98.00
24452;DHT22;13350;50.984;5.822;2024-01-27T12:39:52;10.10;97.10
24452;DHT22;13350;50.984;5.822;2024-01-27T12:42:19;10.00;96.50
24452;DHT22;13350;50.984;5.822;2024-01-27T12:44:48;9.90;96.50
24452;DHT22;13350;50.984;5.822;2024-01-27T12:47:15;9.80;97.70
24452;DHT22;13350;50.984;5.822;2024-01-27T12:49:42;10.00;97.50
24452;DHT22;13350;50.984;5.822;2024-01-27T12:52:09;9.90;96.50
24452;DHT22;13350;50.984;5.822;2024-01-27T12:54:36;9.80;98.60
24452;DHT22;13350;50.984;5.822;2024-01-27T12:57:03;9.90;98.90
24452;DHT22;13350;50.984;5.822;2024-01-27T12:59:31;9.90;99.30
24452;DHT22;13350;50.984;5.822;2024-01-27T13:01:59;9.90;98.00
24452;DHT22;13350;50.984;5.822;2024-01-27T13:04:26;10.30;96.10
24452;DHT22;13350;50.984;5.822;2024-01-27T13:06:53;10.70;95.80
24452;DHT22;13350;50.984;5.822;2024-01-27T13:09:20;10.30;95.10
24452;DHT22;13350;50.984;5.822;2024-01-27T13:11:47;10.40;94.40
24452;DHT22;13350;50.984;5.822;2024-01-27T13:14:18;10.20;95.90
24452;DHT22;13350;50.984;5.822;2024-01-27T13:16:46;9.70;96.20
24452;DHT22;13350;50.984;5.822;2024-01-27T13:19:14;9.40;98.30
24452;DHT22;13350;50.984;5.822;2024-01-27T13:21:41;9.70;99.90
24452;DHT22;13350;50.984;5.822;2024-01-27T13:24:08;9.90;99.00
24452;DHT22;13350;50.984;5.822;2024-01-27T13:26:35;10.20;98.90
24452;DHT22;13350;50.984;5.822;2024-01-27T13:29:03;10.10;98.30
24452;DHT22;13350;50.984;5.822;2024-01-27T13:31:30;10.10;96.90
24452;DHT22;13350;50.984;5.822;2024-01-27T13:33:57;10.00;97.20
24452;DHT22;13350;50.984;5.822;2024-01-27T13:36:26;10.00;97.30
24452;DHT22;13350;50.984;5.822;2024-01-27T13:38:53;10.30;96.90
24452;DHT22;13350;50.984;5.822;2024-01-27T13:41:20;10.10;97.10
24452;DHT22;13350;50.984;5.822;2024-01-27T13:43:47;9.80;96.90
24452;DHT22;13350;50.984;5.822;2024-01-27T13:46:14;9.60;98.50
24452;DHT22;13350;50.984;5.822;2024-01-27T13:48:41;9.40;99.70
24452;DHT22;13350;50.984;5.822;2024-01-27T13:51:08;9.50;98.10
24452;DHT22;13350;50.984;5.822;2024-01-27T13:53:37;9.50;98.50
24452;DHT22;13350;50.984;5.822;2024-01-27T13:56:04;9.60;99.10
24452;DHT22;13350;50.984;5.822;2024-01-27T13:58:32;10.00;99.20
24452;DHT22;13350;50.984;5.822;2024-01-27T14:00:59;9.80;96.90
24452;DHT22;13350;50.984;5.822;2024-01-27T14:03:25;10.20;96.70
24452;DHT22;13350;50.984;5.822;2024-01-27T14:05:52;10.10;95.70
24452;DHT22;13350;50.984;5.822;2024-01-27T14:08:19;10.30;94.30
24452;DHT22;13350;50.984;5.822;2024-01-27T14:10:48;10.40;93.40
24452;DHT22;13350;50.984;5.822;2024-01-27T14:13:17;10.30;93.60
24452;DHT22;13350;50.984;5.822;2024-01-27T14:15:44;9.80;93.30
24452;DHT22;13350;50.984;5.822;2024-01-27T14:18:11;9.50;93.00
24452;DHT22;13350;50.984;5.822;2024-01-27T14:20:46;9.40;95.50
24452;DHT22;13350;50.984;5.822;2024-01-27T14:23:13;9.10;96.90
24452;DHT22;13350;50.984;5.822;2024-01-27T14:25:40;9.00;98.20
24452;DHT22;13350;50.984;5.822;2024-01-27T14:28:09;9.00;99.30
24452;DHT22;13350;50.984;5.822;2024-01-27T14:30:36;8.90;99.90
24452;DHT22;13350;50.984;5.822;2024-01-27T14:33:05;8.60;99.90
24452;DHT22;13350;50.984;5.822;2024-01-27T14:35:32;8.60;99.90
24452;DHT22;13350;50.984;5.822;2024-01-27T14:37:59;8.40;99.90
24452;DHT22;13350;50.984;5.822;2024-01-27T14:40:27;8.30;99.90
24452;DHT22;13350;50.984;5.822;2024-01-27T14:42:53;8.20;99.90
24452;DHT22;13350;50.984;5.822;2024-01-27T14:45:23;8.10;99.90
24452;DHT22;13350;50.984;5.822;2024-01-27T14:47:50;8.10;99.90
24452;DHT22;13350;50.984;5.822;2024-01-27T14:50:17;8.10;99.90
24452;DHT22;13350;50.984;5.822;2024-01-27T14:52:44;8.00;99.90
24452;DHT22;13350;50.984;5.822;2024-01-27T14:55:11;8.00;99.90
24452;DHT22;13350;50.984;5.822;2024-01-27T14:57:41;8.00;99.90
24452;DHT22;13350;50.984;5.822;2024-01-27T15:00:08;7.80;99.90
24452;DHT22;13350;50.984;5.822;2024-01-27T15:02:37;7.70;99.90
24452;DHT22;13350;50.984;5.822;2024-01-27T15:05:04;7.60;99.90
24452;DHT22;13350;50.984;5.822;2024-01-27T15:07:34;7.50;99.90
24452;DHT22;13350;50.984;5.822;2024-01-27T15:10:01;7.50;99.90
24452;DHT22;13350;50.984;5.822;2024-01-27T15:12:29;7.50;99.90
24452;DHT22;13350;50.984;5.822;2024-01-27T15:14:57;7.50;99.90
24452;DHT22;13350;50.984;5.822;2024-01-27T15:17:24;7.50;99.90
24452;DHT22;13350;50.984;5.822;2024-01-27T15:19:52;7.60;99.90
24452;DHT22;13350;50.984;5.822;2024-01-27T15:22:19;7.70;99.90
24452;DHT22;13350;50.984;5.822;2024-01-27T15:24:47;8.00;99.90
24452;DHT22;13350;50.984;5.822;2024-01-27T15:27:14;8.00;99.90
24452;DHT22;13350;50.984;5.822;2024-01-27T15:29:41;7.90;99.90
24452;DHT22;13350;50.984;5.822;2024-01-27T15:32:08;7.90;99.90
24452;DHT22;13350;50.984;5.822;2024-01-27T15:34:35;7.80;99.90
24452;DHT22;13350;50.984;5.822;2024-01-27T15:37:04;7.60;99.90
24452;DHT22;13350;50.984;5.822;2024-01-27T15:39:31;7.50;99.90
24452;DHT22;13350;50.984;5.822;2024-01-27T15:41:58;7.40;99.90
24452;DHT22;13350;50.984;5.822;2024-01-27T15:44:27;7.20;99.90
24452;DHT22;13350;50.984;5.822;2024-01-27T15:46:54;7.10;99.90